Time;durP1;ratioP1;P1;durP2;ratioP2;P2;SDS_P1;SDS_P2;PMS_P1;PMS_P2;Temp;Humidity;BMP_temperature;BMP_pressure;BME280_temperature;BME280_humidity;BME280_pressure;Samples;Min_cycle;Max_cycle;Signal;HPM_P1;HPM_P2
2021/04/07 00:00:13;;;;;;;9.77;9.43;;;23.00;89.30;;;;;;3614126;39;20484;-45
2021/04/07 00:02:40;;;;;;;10.70;10.20;;;23.00;89.30;;;;;;3615823;39;20478;-45
2021/04/07 00:05:09;;;;;;;10.83;10.43;;;23.00;89.20;;;;;;3616769;39;20853;-44
2021/04/07 00:07:36;;;;;;;10.30;9.90;;;23.00;89.20;;;;;;3616512;39;20472;-45
2021/04/07 00:10:05;;;;;;;9.83;9.43;;;23.00;89.20;;;;;;3616865;39;20774;-45
2021/04/07 00:12:31;;;;;;;10.70;10.10;;;23.00;89.20;;;;;;3615459;39;20496;-45
2021/04/07 00:14:59;;;;;;;10.20;9.83;;;23.00;89.20;;;;;;3617556;39;20485;-45
2021/04/07 00:17:25;;;;;;;10.53;10.03;;;23.00;89.20;;;;;;3608224;39;20503;-45
2021/04/07 00:19:52;;;;;;;11.03;10.57;;;23.00;89.10;;;;;;3616838;39;20516;-45
2021/04/07 00:22:19;;;;;;;10.23;9.80;;;23.00;89.10;;;;;;3616741;39;20586;-45
2021/04/07 00:24:46;;;;;;;10.77;10.30;;;23.00;89.10;;;;;;3617274;39;20484;-45
2021/04/07 00:27:13;;;;;;;10.33;9.83;;;23.00;89.00;;;;;;3617250;39;20496;-44
2021/04/07 00:33:57;;;;;;;10.10;9.80;;;23.00;89.00;;;;;;3597656;39;20503;-45
2021/04/07 00:36:24;;;;;;;10.70;10.20;;;23.00;88.80;;;;;;3607493;39;20721;-45
2021/04/07 00:38:50;;;;;;;10.00;9.70;;;23.00;88.90;;;;;;3617319;39;20485;-45
2021/04/07 00:41:17;;;;;;;10.77;10.23;;;23.00;88.90;;;;;;3627281;39;20491;-45
2021/04/07 00:43:44;;;;;;;10.13;9.73;;;23.00;88.90;;;;;;3627379;39;20476;-45
2021/04/07 00:46:11;;;;;;;10.73;10.17;;;23.00;88.90;;;;;;3626460;39;20466;-45
2021/04/07 00:48:38;;;;;;;10.13;9.80;;;23.00;88.80;;;;;;3627072;39;20551;-45
2021/04/07 00:51:05;;;;;;;10.50;10.00;;;22.90;88.70;;;;;;3624814;39;20853;-45
2021/04/07 00:53:32;;;;;;;10.30;9.90;;;23.00;88.80;;;;;;3626860;39;20794;-45
2021/04/07 00:55:59;;;;;;;10.37;9.97;;;23.00;88.80;;;;;;3626314;39;20480;-45
2021/04/07 00:58:25;;;;;;;10.00;9.60;;;23.00;88.80;;;;;;3626839;39;20467;-45
2021/04/07 01:00:54;;;;;;;10.97;10.27;;;23.00;88.70;;;;;;3626980;39;20501;-45
2021/04/07 01:03:21;;;;;;;10.77;10.40;;;23.00;88.70;;;;;;3625978;39;20472;-45
2021/04/07 01:05:48;;;;;;;10.40;10.00;;;23.00;88.70;;;;;;3626189;39;20468;-45
2021/04/07 01:08:16;;;;;;;10.60;10.20;;;23.00;88.70;;;;;;3625463;39;20498;-44
2021/04/07 01:10:44;;;;;;;10.43;10.13;;;23.00;88.60;;;;;;3625923;39;21007;-45
2021/04/07 01:13:16;;;;;;;10.03;9.73;;;23.00;88.60;;;;;;3626388;39;20481;-45
2021/04/07 01:15:43;;;;;;;10.50;10.10;;;23.00;88.50;;;;;;3625006;39;20686;-45
2021/04/07 01:18:10;;;;;;;10.77;10.40;;;22.90;88.50;;;;;;3626892;39;20467;-45
2021/04/07 01:20:36;;;;;;;10.30;10.00;;;22.90;88.50;;;;;;3626518;39;20473;-45
2021/04/07 01:23:04;;;;;;;10.67;10.27;;;23.00;88.50;;;;;;3626342;39;20887;-45
2021/04/07 01:25:32;;;;;;;10.57;10.17;;;23.00;88.50;;;;;;3626684;39;20490;-45
2021/04/07 01:28:00;;;;;;;10.30;9.93;;;22.90;88.40;;;;;;3626807;39;20713;-44
2021/04/07 01:30:27;;;;;;;11.20;10.40;;;22.90;88.40;;;;;;3626939;39;20551;-44
2021/04/07 01:32:54;;;;;;;10.80;10.40;;;22.90;88.30;;;;;;3626946;39;20480;-45
2021/04/07 01:35:23;;;;;;;10.73;10.20;;;22.90;88.30;;;;;;3626786;39;20587;-45
2021/04/07 01:37:49;;;;;;;10.80;10.40;;;23.00;88.40;;;;;;3627209;39;20484;-45
2021/04/07 01:40:17;;;;;;;10.63;10.23;;;22.90;88.20;;;;;;3625852;39;20508;-45
2021/04/07 01:42:46;;;;;;;10.70;10.20;;;22.90;88.20;;;;;;3626613;39;20489;-45
2021/04/07 01:45:14;;;;;;;10.77;10.43;;;22.90;88.10;;;;;;3626347;39;20496;-45
2021/04/07 01:47:40;;;;;;;10.87;10.47;;;22.90;88.20;;;;;;3626610;39;20474;-45
2021/04/07 01:50:08;;;;;;;10.10;9.80;;;22.90;88.20;;;;;;3625786;39;20471;-45
2021/04/07 01:52:35;;;;;;;10.90;10.50;;;22.90;88.20;;;;;;3626674;39;20489;-45
2021/04/07 01:55:03;;;;;;;10.53;10.13;;;22.90;88.10;;;;;;3625841;39;20487;-45
2021/04/07 01:57:29;;;;;;;10.33;10.00;;;22.90;88.10;;;;;;3625922;39;20503;-45
2021/04/07 01:59:57;;;;;;;10.50;10.20;;;22.90;88.10;;;;;;3625601;39;20503;-45
2021/04/07 02:02:23;;;;;;;10.10;9.80;;;22.90;88.10;;;;;;3625302;39;20476;-45
2021/04/07 02:04:50;;;;;;;10.40;9.77;;;22.90;88.00;;;;;;3626602;39;20565;-45
2021/04/07 02:07:17;;;;;;;9.90;9.50;;;22.90;88.00;;;;;;3625423;39;20561;-45
2021/04/07 02:09:44;;;;;;;9.87;9.57;;;22.90;88.10;;;;;;3625513;39;20472;-45
2021/04/07 02:12:12;;;;;;;10.53;10.10;;;22.90;88.00;;;;;;3626886;39;20464;-44
2021/04/07 02:14:39;;;;;;;10.37;9.97;;;22.90;87.90;;;;;;3626074;39;20484;-45
2021/04/07 02:17:06;;;;;;;10.30;9.80;;;22.90;87.90;;;;;;3626086;39;20461;-45
2021/04/07 02:19:35;;;;;;;10.50;10.10;;;22.90;87.90;;;;;;3626060;39;20488;-45
2021/04/07 02:22:06;;;;;;;10.20;9.80;;;22.90;87.90;;;;;;3626720;39;20483;-45
2021/04/07 02:24:34;;;;;;;10.20;9.80;;;22.90;87.90;;;;;;3625639;39;20483;-44
2021/04/07 02:27:11;;;;;;;10.40;10.00;;;22.90;87.80;;;;;;3627344;39;21065;-45
2021/04/07 02:29:38;;;;;;;10.60;10.20;;;22.90;87.80;;;;;;3626793;39;20472;-45
2021/04/07 02:32:06;;;;;;;10.20;9.90;;;22.90;87.80;;;;;;3628322;39;20492;-44
2021/04/07 02:34:33;;;;;;;11.00;10.60;;;22.90;87.70;;;;;;3627336;39;20476;-45
2021/04/07 02:37:00;;;;;;;10.67;10.27;;;22.90;87.80;;;;;;3627315;39;20480;-44
2021/04/07 02:39:28;;;;;;;10.80;10.30;;;22.90;87.80;;;;;;3627076;39;20488;-45
2021/04/07 02:41:55;;;;;;;10.40;10.00;;;22.90;87.70;;;;;;3627729;39;20484;-44
2021/04/07 02:44:21;;;;;;;10.47;10.17;;;22.90;87.60;;;;;;3627633;39;20476;-45
2021/04/07 02:46:48;;;;;;;10.70;10.37;;;22.90;87.70;;;;;;3627347;39;20477;-44
2021/04/07 02:49:16;;;;;;;10.30;10.00;;;22.90;87.60;;;;;;3625425;39;20501;-45
2021/04/07 02:51:42;;;;;;;10.70;10.30;;;22.90;87.60;;;;;;3624949;39;20503;-45
2021/04/07 02:54:09;;;;;;;10.10;9.80;;;22.90;87.60;;;;;;3627018;39;20515;-45
2021/04/07 02:56:36;;;;;;;10.80;10.30;;;22.90;87.70;;;;;;3626503;39;20589;-45
2021/04/07 02:59:03;;;;;;;10.63;10.20;;;22.90;87.70;;;;;;3626649;39;20667;-45
2021/04/07 03:01:30;;;;;;;10.70;10.30;;;22.90;87.60;;;;;;3625854;39;20465;-45
2021/04/07 03:03:56;;;;;;;10.03;9.60;;;22.90;87.60;;;;;;3625664;39;20484;-45
2021/04/07 03:06:24;;;;;;;11.10;10.33;;;22.90;87.60;;;;;;3625764;39;20488;-45
2021/04/07 03:08:51;;;;;;;10.37;9.97;;;22.90;87.60;;;;;;3625869;39;20499;-45
2021/04/07 03:11:17;;;;;;;10.23;9.83;;;22.90;87.60;;;;;;3625844;39;20521;-45
2021/04/07 03:13:44;;;;;;;10.80;10.43;;;22.90;87.60;;;;;;3624984;39;20468;-45
2021/04/07 03:16:11;;;;;;;10.63;10.33;;;22.90;87.50;;;;;;3626158;39;20480;-44
2021/04/07 03:18:38;;;;;;;10.80;10.40;;;22.90;87.40;;;;;;3625029;39;20471;-45
2021/04/07 03:21:05;;;;;;;10.70;10.20;;;22.90;87.50;;;;;;3625672;39;20469;-45
2021/04/07 03:23:32;;;;;;;10.50;10.10;;;22.90;87.30;;;;;;3627607;39;20472;-45
2021/04/07 03:25:59;;;;;;;10.70;10.40;;;22.90;87.30;;;;;;3615881;39;20681;-45
2021/04/07 03:28:26;;;;;;;10.83;10.33;;;22.90;87.30;;;;;;3627506;39;20486;-45
2021/04/07 03:30:52;;;;;;;10.40;10.10;;;22.90;87.30;;;;;;3618008;39;20558;-44
2021/04/07 03:33:20;;;;;;;10.40;10.00;;;22.90;87.30;;;;;;3617712;39;20501;-45
2021/04/07 03:35:48;;;;;;;11.03;10.63;;;22.90;87.30;;;;;;3626936;39;20477;-45
2021/04/07 03:38:15;;;;;;;10.90;10.50;;;22.90;87.30;;;;;;3627181;39;20541;-43
2021/04/07 03:40:43;;;;;;;11.40;10.80;;;22.90;87.20;;;;;;3617485;39;20491;-43
2021/04/07 03:43:11;;;;;;;11.10;10.70;;;22.90;87.20;;;;;;3615865;39;20596;-43
2021/04/07 03:45:41;;;;;;;11.20;10.87;;;22.90;87.10;;;;;;3616169;39;20492;-43
2021/04/07 03:48:11;;;;;;;10.80;10.50;;;22.90;87.10;;;;;;3615858;39;20501;-42
2021/04/07 03:50:39;;;;;;;11.10;10.70;;;22.90;87.10;;;;;;3616217;39;20486;-42
2021/04/07 03:53:06;;;;;;;12.00;11.60;;;22.90;87.00;;;;;;3615681;39;20491;-42
2021/04/07 03:55:33;;;;;;;10.90;10.60;;;23.00;87.10;;;;;;3616331;39;20492;-42
2021/04/07 03:58:01;;;;;;;11.57;11.10;;;23.00;87.00;;;;;;3614555;39;20506;-42
2021/04/07 04:00:28;;;;;;;10.70;10.30;;;23.00;86.90;;;;;;3615141;39;20484;-42
2021/04/07 04:02:54;;;;;;;11.10;10.70;;;23.00;86.90;;;;;;3606141;39;20906;-42
2021/04/07 04:05:21;;;;;;;10.40;10.00;;;23.00;86.80;;;;;;3614975;39;20497;-43
2021/04/07 04:07:48;;;;;;;11.40;11.00;;;23.00;86.70;;;;;;3616382;39;20872;-43
2021/04/07 04:10:15;;;;;;;11.50;11.10;;;23.10;86.80;;;;;;3616130;39;20482;-43
2021/04/07 04:12:42;;;;;;;11.30;10.80;;;23.10;86.80;;;;;;3616098;39;20749;-43
2021/04/07 04:15:12;;;;;;;11.30;10.90;;;23.10;86.70;;;;;;3614741;39;20484;-43
2021/04/07 04:17:40;;;;;;;11.67;11.07;;;23.10;86.70;;;;;;3615090;39;20571;-43
2021/04/07 04:20:08;;;;;;;11.67;11.17;;;23.10;86.60;;;;;;3615444;39;20490;-43
2021/04/07 04:22:34;;;;;;;11.60;11.20;;;23.10;86.60;;;;;;3614879;39;20712;-43
2021/04/07 04:25:01;;;;;;;12.13;11.63;;;23.10;86.50;;;;;;3615159;39;20548;-43
2021/04/07 04:27:28;;;;;;;11.77;11.37;;;23.10;86.50;;;;;;3614647;39;20663;-43
2021/04/07 04:29:54;;;;;;;11.50;11.10;;;23.10;86.50;;;;;;3614330;39;20824;-43
2021/04/07 04:32:22;;;;;;;11.40;11.00;;;23.10;86.40;;;;;;3614637;39;20804;-43
2021/04/07 04:34:49;;;;;;;11.50;11.10;;;23.20;86.50;;;;;;3603076;39;20512;-43
2021/04/07 04:37:15;;;;;;;11.77;11.37;;;23.20;86.40;;;;;;3613378;39;20497;-43
2021/04/07 04:39:42;;;;;;;12.03;11.63;;;23.20;86.40;;;;;;3618597;39;20509;-42
2021/04/07 04:42:08;;;;;;;12.87;12.37;;;23.20;86.30;;;;;;3623638;39;20769;-42
2021/04/07 04:44:35;;;;;;;12.77;12.37;;;23.20;86.30;;;;;;3613128;39;20473;-42
2021/04/07 04:47:02;;;;;;;12.37;11.87;;;23.20;86.20;;;;;;3621190;39;20464;-43
2021/04/07 04:49:29;;;;;;;12.30;11.70;;;23.20;86.10;;;;;;3622886;39;20492;-43
2021/04/07 04:51:56;;;;;;;12.70;12.20;;;23.20;86.10;;;;;;3620691;39;20599;-43
2021/04/07 04:54:25;;;;;;;12.00;11.60;;;23.20;86.00;;;;;;3621086;39;20851;-43
2021/04/07 04:56:54;;;;;;;12.17;11.77;;;23.20;86.00;;;;;;3618308;39;20488;-43
2021/04/07 04:59:20;;;;;;;12.47;11.93;;;23.30;86.10;;;;;;3620645;39;20798;-43
2021/04/07 05:01:47;;;;;;;11.83;11.40;;;23.30;86.00;;;;;;3619535;39;20477;-43
2021/04/07 05:04:14;;;;;;;12.33;11.83;;;23.30;86.00;;;;;;3619192;39;20495;-43
2021/04/07 05:06:41;;;;;;;11.97;11.57;;;23.30;85.90;;;;;;3619197;39;20492;-43
2021/04/07 05:09:08;;;;;;;12.53;12.03;;;23.30;85.80;;;;;;3620080;39;20502;-42
2021/04/07 05:11:35;;;;;;;11.87;11.40;;;23.30;85.80;;;;;;3622161;39;20476;-42
2021/04/07 05:14:03;;;;;;;11.70;11.30;;;23.30;85.80;;;;;;3620148;39;20502;-42
2021/04/07 05:16:30;;;;;;;12.60;11.90;;;23.30;85.70;;;;;;3621535;39;20476;-42
2021/04/07 05:18:57;;;;;;;12.10;11.60;;;23.30;85.70;;;;;;3620552;39;20500;-42
2021/04/07 05:21:24;;;;;;;11.70;11.20;;;23.30;85.70;;;;;;3621101;39;20811;-42
2021/04/07 05:23:52;;;;;;;12.17;11.77;;;23.40;85.80;;;;;;3612153;39;20521;-42
2021/04/07 05:26:18;;;;;;;12.70;12.20;;;23.30;85.60;;;;;;3619532;39;20480;-42
2021/04/07 05:28:46;;;;;;;12.00;11.60;;;23.40;85.60;;;;;;3620813;39;20495;-42
2021/04/07 05:31:13;;;;;;;11.93;11.53;;;23.40;85.60;;;;;;3620759;39;20483;-42
2021/04/07 05:33:42;;;;;;;11.40;11.00;;;23.40;85.50;;;;;;3619541;39;20510;-42
2021/04/07 05:36:11;;;;;;;12.20;11.80;;;23.50;85.60;;;;;;3618017;39;20562;-42
2021/04/07 05:38:38;;;;;;;11.80;11.40;;;23.50;85.50;;;;;;3618975;39;20484;-42
2021/04/07 05:41:06;;;;;;;11.20;10.90;;;23.50;85.40;;;;;;3615514;39;20497;-42
2021/04/07 05:43:36;;;;;;;11.30;10.93;;;23.50;85.40;;;;;;3619323;39;21419;-42
2021/04/07 05:46:03;;;;;;;11.90;11.50;;;23.50;86.10;;;;;;3618337;39;20564;-42
2021/04/07 05:48:29;;;;;;;11.30;10.90;;;23.50;85.30;;;;;;3617781;39;20488;-42
2021/04/07 05:50:56;;;;;;;12.00;11.50;;;23.50;85.30;;;;;;3616269;39;20580;-42
2021/04/07 05:53:24;;;;;;;12.00;11.53;;;23.50;85.20;;;;;;3616546;39;20502;-42
2021/04/07 05:55:52;;;;;;;12.67;11.90;;;23.50;85.20;;;;;;3617127;39;20497;-42
2021/04/07 05:58:20;;;;;;;11.57;11.20;;;23.50;85.20;;;;;;3615358;39;20461;-42
2021/04/07 06:00:48;;;;;;;11.40;11.10;;;23.50;85.10;;;;;;3615124;39;20493;-42
2021/04/07 06:03:15;;;;;;;11.70;11.30;;;23.50;85.10;;;;;;3617454;39;20485;-42
2021/04/07 06:05:45;;;;;;;11.57;11.17;;;23.50;85.50;;;;;;3616335;39;20514;-42
2021/04/07 06:08:12;;;;;;;12.63;12.13;;;23.60;85.10;;;;;;3604835;39;20496;-42
2021/04/07 06:10:41;;;;;;;11.70;11.30;;;23.50;85.00;;;;;;3614122;39;20778;-42
2021/04/07 06:13:10;;;;;;;12.07;11.57;;;23.60;85.00;;;;;;3613629;39;20511;-42
2021/04/07 06:15:38;;;;;;;11.50;11.10;;;23.60;85.00;;;;;;3612022;39;20484;-42
2021/04/07 06:18:07;;;;;;;12.20;11.60;;;23.60;85.00;;;;;;3612830;39;20493;-42
2021/04/07 06:20:35;;;;;;;11.70;11.30;;;23.60;84.90;;;;;;3616249;39;20484;-42
2021/04/07 06:23:04;;;;;;;11.30;10.90;;;23.60;84.80;;;;;;3615577;39;20502;-42
2021/04/07 06:25:31;;;;;;;11.20;10.80;;;23.60;84.80;;;;;;3614337;39;20481;-42
2021/04/07 06:27:59;;;;;;;11.27;10.87;;;23.60;84.80;;;;;;3613920;39;20496;-42
2021/04/07 06:30:41;;;;;;;11.47;11.07;;;23.60;84.70;;;;;;3615133;39;20483;-42
2021/04/07 06:33:10;;;;;;;10.87;10.47;;;23.60;84.70;;;;;;3615403;39;20494;-42
2021/04/07 06:35:38;;;;;;;10.90;10.50;;;23.70;84.70;;;;;;3613642;39;20487;-42
2021/04/07 06:38:05;;;;;;;11.17;10.57;;;23.70;84.60;;;;;;3615186;39;20492;-42
2021/04/07 06:40:32;;;;;;;11.57;10.83;;;23.70;84.50;;;;;;3615511;39;20617;-42
2021/04/07 06:43:00;;;;;;;12.13;11.70;;;23.70;84.40;;;;;;3614420;39;20487;-42
2021/04/07 06:45:31;;;;;;;11.70;11.30;;;23.70;84.30;;;;;;3614044;39;20476;-42
2021/04/07 06:47:57;;;;;;;11.30;10.90;;;23.70;84.30;;;;;;3614448;39;20474;-42
2021/04/07 06:50:26;;;;;;;11.10;10.60;;;23.80;84.30;;;;;;3609194;39;20476;-42
2021/04/07 06:52:59;;;;;;;11.57;11.07;;;23.80;84.30;;;;;;3608449;39;20524;-42
2021/04/07 06:55:27;;;;;;;11.40;11.00;;;23.80;84.20;;;;;;3595467;39;20480;-42
2021/04/07 06:57:54;;;;;;;12.00;11.30;;;23.70;84.10;;;;;;3603996;39;20498;-42
2021/04/07 07:00:23;;;;;;;10.90;10.50;;;23.80;84.20;;;;;;3607233;39;20794;-42
2021/04/07 07:02:58;;;;;;;10.80;10.40;;;23.80;84.20;;;;;;3611601;39;20490;-42
2021/04/07 07:05:26;;;;;;;11.97;11.47;;;23.70;84.10;;;;;;3614087;39;20475;-42
2021/04/07 07:07:59;;;;;;;11.20;10.80;;;23.70;84.10;;;;;;3613788;39;21393;-42
2021/04/07 07:10:33;;;;;;;10.87;10.43;;;23.70;84.20;;;;;;3614143;39;20498;-42
2021/04/07 07:13:00;;;;;;;10.57;10.27;;;23.80;84.10;;;;;;3613468;39;20498;-42
2021/04/07 07:15:27;;;;;;;10.83;10.43;;;23.80;84.00;;;;;;3608968;39;20495;-42
2021/04/07 07:17:54;;;;;;;11.57;10.93;;;23.80;84.10;;;;;;3610093;39;20484;-42
2021/04/07 07:20:28;;;;;;;11.50;11.10;;;23.80;84.00;;;;;;3613038;39;20475;-42
2021/04/07 07:22:55;;;;;;;11.53;10.93;;;23.80;84.00;;;;;;3614256;39;20497;-42
2021/04/07 07:25:21;;;;;;;11.40;10.70;;;23.70;84.00;;;;;;3614536;39;20480;-42
2021/04/07 07:28:08;;;;;;;12.23;11.53;;;23.70;84.00;;;;;;3602696;39;20569;-42
2021/04/07 07:30:41;;;;;;;12.53;11.73;;;23.70;84.10;;;;;;3611058;39;21270;-43
2021/04/07 07:33:19;;;;;;;12.40;11.63;;;23.70;84.40;;;;;;3609698;39;20499;-43
2021/04/07 07:35:48;;;;;;;12.93;12.00;;;23.70;84.40;;;;;;3607336;39;20532;-43
2021/04/07 07:38:23;;;;;;;12.90;11.90;;;23.70;84.40;;;;;;3613198;39;20472;-43
2021/04/07 07:40:57;;;;;;;12.97;12.37;;;23.70;84.40;;;;;;3614767;39;20564;-43
2021/04/07 07:43:24;;;;;;;12.90;12.13;;;23.70;84.40;;;;;;3605183;39;20807;-43
2021/04/07 07:45:51;;;;;;;12.70;11.80;;;23.70;84.50;;;;;;3607807;39;20488;-43
2021/04/07 07:48:19;;;;;;;13.63;12.17;;;23.70;84.60;;;;;;3599812;39;21308;-43
2021/04/07 07:50:48;;;;;;;14.83;11.40;;;23.70;84.50;;;;;;3612428;39;20469;-43
2021/04/07 07:53:20;;;;;;;11.97;11.33;;;23.70;84.50;;;;;;3610060;39;20500;-43
2021/04/07 07:55:50;;;;;;;11.83;11.20;;;23.70;84.60;;;;;;3604892;39;20480;-43
2021/04/07 07:58:17;;;;;;;11.80;10.80;;;23.70;84.60;;;;;;3609840;39;20488;-43
2021/04/07 08:00:44;;;;;;;11.40;10.70;;;23.70;84.60;;;;;;3603415;39;20492;-43
2021/04/07 08:03:15;;;;;;;12.00;11.30;;;23.70;84.60;;;;;;3609913;39;20653;-43
2021/04/07 08:05:43;;;;;;;12.00;11.33;;;23.70;84.60;;;;;;3610028;39;20679;-43
2021/04/07 08:08:11;;;;;;;12.37;10.97;;;23.70;84.70;;;;;;3606385;39;20730;-43
2021/04/07 08:10:39;;;;;;;12.17;10.93;;;23.70;84.70;;;;;;3609339;39;20510;-43
2021/04/07 08:13:08;;;;;;;11.57;10.97;;;23.70;84.80;;;;;;3611256;39;21038;-43
2021/04/07 08:15:38;;;;;;;11.43;10.83;;;23.70;84.80;;;;;;3598680;39;20503;-43
2021/04/07 08:18:07;;;;;;;12.83;11.93;;;23.70;84.80;;;;;;3598429;39;20747;-43
2021/04/07 08:20:36;;;;;;;12.03;11.33;;;23.60;84.80;;;;;;3609772;39;21179;-43
2021/04/07 08:23:05;;;;;;;11.43;10.90;;;23.70;85.00;;;;;;3608413;39;20706;-43
2021/04/07 08:25:33;;;;;;;11.73;11.13;;;23.60;84.90;;;;;;3606993;39;20512;-43
2021/04/07 08:28:01;;;;;;;12.10;11.50;;;23.60;85.00;;;;;;3607921;39;20677;-43
2021/04/07 08:30:28;;;;;;;13.00;12.00;;;23.60;85.00;;;;;;3609899;39;20491;-43
2021/04/07 08:32:56;;;;;;;12.40;11.70;;;23.60;85.10;;;;;;3608107;39;20488;-43
2021/04/07 08:35:24;;;;;;;11.70;11.00;;;23.60;85.10;;;;;;3609777;39;20492;-43
2021/04/07 08:38:04;;;;;;;12.37;11.73;;;23.70;85.20;;;;;;3607595;39;20783;-43
2021/04/07 08:40:40;;;;;;;12.63;11.63;;;23.70;85.40;;;;;;3597950;39;20802;-43
2021/04/07 08:43:10;;;;;;;12.50;11.80;;;23.70;85.50;;;;;;3597299;39;20695;-43
2021/04/07 08:45:41;;;;;;;13.30;11.30;;;23.70;85.60;;;;;;3598531;39;20497;-43
2021/04/07 08:48:18;;;;;;;12.57;11.70;;;23.70;85.60;;;;;;3599659;39;20757;-43
2021/04/07 08:50:45;;;;;;;12.60;12.03;;;23.70;85.70;;;;;;3594005;39;20850;-43
2021/04/07 08:53:15;;;;;;;12.57;11.70;;;23.70;85.80;;;;;;3594241;39;20618;-43
2021/04/07 08:55:51;;;;;;;13.07;12.47;;;23.70;86.00;;;;;;3597876;39;20499;-43
2021/04/07 08:58:23;;;;;;;13.30;12.47;;;23.60;86.00;;;;;;3597930;39;20629;-43
2021/04/07 09:00:53;;;;;;;13.50;12.70;;;23.70;86.10;;;;;;3598371;39;20872;-43
2021/04/07 09:03:23;;;;;;;12.90;11.87;;;23.70;86.10;;;;;;3596503;39;21156;-43
2021/04/07 09:05:49;;;;;;;13.30;12.50;;;23.70;86.10;;;;;;3597294;39;20502;-43
2021/04/07 09:08:18;;;;;;;13.23;12.23;;;23.60;86.00;;;;;;3595832;39;20745;-43
2021/04/07 09:10:46;;;;;;;12.80;12.07;;;23.60;86.00;;;;;;3597539;39;20601;-43
2021/04/07 09:13:15;;;;;;;12.47;11.87;;;23.60;86.00;;;;;;3598269;39;20741;-43
2021/04/07 09:15:50;;;;;;;12.93;12.10;;;23.60;86.00;;;;;;3598626;39;20774;-43
2021/04/07 09:18:18;;;;;;;12.70;11.50;;;23.60;86.10;;;;;;3588347;39;20842;-43
2021/04/07 09:20:47;;;;;;;11.87;11.27;;;23.60;86.10;;;;;;3598729;39;20541;-43
2021/04/07 09:23:24;;;;;;;12.63;11.60;;;23.60;86.10;;;;;;3599606;39;20569;-43
2021/04/07 09:25:54;;;;;;;12.17;11.37;;;23.60;86.10;;;;;;3598603;39;21059;-43
2021/04/07 09:28:32;;;;;;;12.30;11.53;;;23.60;86.10;;;;;;3597308;39;20557;-43
2021/04/07 09:31:06;;;;;;;12.90;11.90;;;23.60;86.20;;;;;;3596978;39;20497;-43
2021/04/07 09:33:35;;;;;;;12.63;11.73;;;23.60;86.10;;;;;;3597856;39;20805;-43
2021/04/07 09:36:02;;;;;;;13.33;12.23;;;23.60;86.20;;;;;;3597532;39;20742;-43
2021/04/07 09:38:31;;;;;;;12.47;11.47;;;23.60;86.20;;;;;;3597723;39;20489;-43
2021/04/07 09:41:07;;;;;;;12.87;11.80;;;23.60;86.30;;;;;;3599020;39;20534;-43
2021/04/07 09:43:35;;;;;;;11.40;10.90;;;23.60;86.30;;;;;;3597696;39;20617;-43
2021/04/07 09:46:03;;;;;;;12.73;11.83;;;23.60;86.30;;;;;;3597855;39;21110;-43
2021/04/07 09:48:43;;;;;;;11.83;11.33;;;23.60;86.30;;;;;;3597512;39;20717;-43
2021/04/07 09:51:30;;;;;;;12.57;11.80;;;23.60;86.20;;;;;;3597587;39;20550;-43
2021/04/07 09:54:12;;;;;;;11.50;10.80;;;23.60;86.30;;;;;;3596845;39;20480;-43
2021/04/07 09:57:04;;;;;;;11.80;11.00;;;23.60;86.40;;;;;;3598031;39;20500;-43
2021/04/07 09:59:39;;;;;;;11.93;10.97;;;23.60;86.40;;;;;;3598152;39;20856;-43
2021/04/07 10:02:08;;;;;;;12.83;11.93;;;23.60;86.40;;;;;;3596445;39;20635;-43
2021/04/07 10:04:36;;;;;;;11.47;10.77;;;23.60;86.40;;;;;;3597922;39;20472;-43
2021/04/07 10:07:11;;;;;;;11.20;10.60;;;23.60;86.40;;;;;;3595446;39;20507;-43
2021/04/07 10:09:38;;;;;;;11.93;11.43;;;23.60;86.40;;;;;;3586723;39;20697;-43
2021/04/07 10:12:07;;;;;;;11.87;11.27;;;23.60;86.40;;;;;;3598334;39;20542;-43
2021/04/07 10:14:34;;;;;;;11.77;11.17;;;23.60;86.40;;;;;;3596376;39;20846;-43
2021/04/07 10:17:11;;;;;;;12.23;11.63;;;23.60;86.40;;;;;;3596957;39;20504;-43
2021/04/07 10:19:38;;;;;;;12.60;11.70;;;23.60;86.30;;;;;;3598242;39;20473;-43
2021/04/07 10:22:07;;;;;;;11.93;11.43;;;23.60;86.20;;;;;;3597235;39;20856;-43
2021/04/07 10:24:37;;;;;;;12.03;11.13;;;23.60;86.20;;;;;;3598957;39;20484;-43
2021/04/07 10:27:04;;;;;;;11.20;10.70;;;23.60;86.20;;;;;;3595441;39;20653;-43
2021/04/07 10:29:34;;;;;;;11.70;11.10;;;23.60;86.30;;;;;;3596486;39;20760;-43
2021/04/07 10:32:00;;;;;;;12.30;11.50;;;23.60;86.10;;;;;;3595387;39;20826;-43
2021/04/07 10:34:31;;;;;;;11.70;11.30;;;23.70;86.20;;;;;;3596735;39;20538;-43
2021/04/07 10:36:58;;;;;;;11.33;10.83;;;23.60;86.10;;;;;;3599189;39;20789;-43
2021/04/07 10:39:25;;;;;;;11.93;11.23;;;23.60;86.10;;;;;;3602622;39;20533;-43
2021/04/07 10:41:52;;;;;;;11.03;10.63;;;23.60;86.20;;;;;;3608046;39;20577;-43
2021/04/07 10:44:23;;;;;;;11.17;10.57;;;23.60;86.30;;;;;;3608567;39;20781;-43
2021/04/07 10:46:51;;;;;;;11.90;11.30;;;23.60;86.30;;;;;;3608752;39;20609;-43
2021/04/07 10:49:18;;;;;;;11.73;11.13;;;23.60;86.40;;;;;;3609361;39;21053;-43
2021/04/07 10:51:45;;;;;;;12.00;11.20;;;23.60;86.40;;;;;;3608801;39;20702;-43
2021/04/07 10:54:12;;;;;;;10.97;10.37;;;23.50;86.40;;;;;;3609507;39;20548;-43
2021/04/07 10:56:39;;;;;;;12.37;11.60;;;23.50;86.40;;;;;;3611057;39;20496;-43
2021/04/07 10:59:10;;;;;;;11.30;10.70;;;23.50;86.40;;;;;;3609362;39;20733;-43
2021/04/07 11:01:37;;;;;;;11.47;10.90;;;23.60;86.50;;;;;;3608310;39;20699;-43
2021/04/07 11:04:12;;;;;;;11.60;11.10;;;23.60;86.50;;;;;;3599604;39;20569;-43
2021/04/07 11:06:39;;;;;;;11.67;11.07;;;23.60;86.40;;;;;;3599138;39;20469;-43
2021/04/07 11:09:06;;;;;;;11.90;11.20;;;23.60;86.40;;;;;;3598811;39;20884;-43
2021/04/07 11:11:34;;;;;;;11.90;11.23;;;23.60;86.40;;;;;;3599923;39;20495;-43
2021/04/07 11:14:01;;;;;;;12.40;11.63;;;23.60;86.30;;;;;;3600949;39;20476;-43
2021/04/07 11:16:32;;;;;;;12.00;11.40;;;23.60;86.40;;;;;;3600865;39;20712;-43
2021/04/07 11:18:58;;;;;;;11.50;11.00;;;23.60;86.40;;;;;;3600677;39;20480;-43
2021/04/07 11:21:26;;;;;;;11.63;11.10;;;23.60;86.30;;;;;;3600003;39;20711;-43
2021/04/07 11:23:52;;;;;;;10.93;10.50;;;23.60;86.30;;;;;;3600861;39;20754;-43
2021/04/07 11:26:20;;;;;;;12.30;11.70;;;23.60;86.30;;;;;;3601617;39;20481;-43
2021/04/07 11:28:46;;;;;;;11.67;11.07;;;23.50;86.30;;;;;;3601167;39;20485;-43
2021/04/07 11:31:16;;;;;;;11.87;11.00;;;23.50;86.30;;;;;;3609136;39;20531;-43
2021/04/07 11:33:46;;;;;;;11.83;11.20;;;23.60;86.40;;;;;;3607616;39;20978;-43
2021/04/07 11:36:23;;;;;;;11.00;10.60;;;23.60;86.30;;;;;;3608516;39;20483;-43
2021/04/07 11:38:55;;;;;;;12.10;11.37;;;23.60;86.20;;;;;;3609075;39;20503;-43
2021/04/07 11:47:06;;;;;;;11.10;10.70;;;23.70;86.00;;;;;;3565104;40;20912;-43
2021/04/07 11:49:35;;;;;;;11.00;10.50;;;23.70;86.10;;;;;;3564473;40;20490;-43
2021/04/07 11:52:02;;;;;;;10.50;10.00;;;23.70;86.10;;;;;;3576086;39;20935;-43
2021/04/07 11:54:30;;;;;;;11.70;10.90;;;23.70;86.10;;;;;;3599503;39;20487;-43
2021/04/07 11:56:57;;;;;;;11.70;11.10;;;23.70;86.00;;;;;;3600453;39;20469;-43
2021/04/07 11:59:25;;;;;;;10.57;10.17;;;23.60;86.10;;;;;;3597353;39;20498;-42
2021/04/07 12:01:54;;;;;;;11.10;10.70;;;23.70;86.20;;;;;;3599266;39;20617;-43
2021/04/07 12:04:23;;;;;;;11.40;10.90;;;23.70;86.00;;;;;;3597694;39;20848;-43
2021/04/07 12:06:50;;;;;;;11.03;10.43;;;23.70;86.00;;;;;;3599019;39;20930;-43
2021/04/07 12:09:16;;;;;;;11.43;10.70;;;23.80;86.00;;;;;;3597328;39;20712;-43
2021/04/07 12:11:44;;;;;;;10.50;10.00;;;23.80;86.00;;;;;;3599557;39;20737;-43
2021/04/07 12:14:11;;;;;;;10.67;10.27;;;23.70;85.90;;;;;;3602950;39;20732;-43
2021/04/07 12:16:38;;;;;;;10.80;10.23;;;23.70;85.90;;;;;;3609440;39;20677;-43
2021/04/07 12:19:05;;;;;;;11.00;10.60;;;23.70;85.90;;;;;;3610269;39;21141;-43
2021/04/07 12:21:32;;;;;;;10.47;10.07;;;23.70;85.90;;;;;;3609905;39;21123;-43
2021/04/07 12:23:59;;;;;;;11.13;10.63;;;23.70;85.90;;;;;;3607750;39;20819;-43
2021/04/07 12:26:26;;;;;;;11.87;11.33;;;23.70;86.00;;;;;;3605574;39;20482;-43
2021/04/07 12:28:56;;;;;;;11.00;10.50;;;23.60;86.00;;;;;;3603397;39;21100;-43
2021/04/07 12:31:22;;;;;;;11.77;11.17;;;23.60;86.00;;;;;;3614400;39;20481;-43
2021/04/07 12:33:51;;;;;;;10.70;10.20;;;23.60;86.10;;;;;;3543397;39;20492;-43
2021/04/07 12:36:21;;;;;;;10.77;10.37;;;23.60;86.10;;;;;;3569898;39;20577;-43
2021/04/07 12:38:48;;;;;;;11.10;10.70;;;23.60;86.20;;;;;;3609783;39;20496;-43
2021/04/07 12:41:20;;;;;;;11.80;11.00;;;23.60;86.20;;;;;;3614156;39;20479;-42
2021/04/07 12:43:46;;;;;;;11.73;11.13;;;23.60;86.30;;;;;;3615597;39;20480;-43